Time;durP1;ratioP1;P1;durP2;ratioP2;P2;SDS_P1;SDS_P2;PMS_P1;PMS_P2;Temp;Humidity;BMP_temperature;BMP_pressure;BME280_temperature;BME280_humidity;BME280_pressure;Samples;Min_cycle;Max_cycle;Signal;HPM_P1;HPM_P2
2022/08/10 00:00:20;;;;;;;3.95;2.53;;;22.20;77.20;;;;;;5055622;28;20036;-73
2022/08/10 00:03:00;;;;;;;4.10;2.67;;;22.10;78.00;;;;;;5057766;28;20033;-73
2022/08/10 00:05:26;;;;;;;4.38;2.83;;;22.10;79.10;;;;;;5046461;28;20028;-73
2022/08/10 00:07:53;;;;;;;5.35;3.08;;;22.00;78.70;;;;;;5055359;28;20040;-73
2022/08/10 00:10:22;;;;;;;3.75;2.92;;;22.00;79.70;;;;;;5057662;28;20013;-73
2022/08/10 00:12:48;;;;;;;3.95;2.80;;;21.90;79.70;;;;;;5047146;28;20029;-73
2022/08/10 00:15:19;;;;;;;6.15;2.95;;;21.90;79.80;;;;;;5056835;28;20013;-73
2022/08/10 00:17:45;;;;;;;5.32;2.67;;;21.80;79.60;;;;;;5056797;28;20060;-73
2022/08/10 00:20:12;;;;;;;4.13;2.50;;;21.80;79.70;;;;;;5056764;28;20032;-73
2022/08/10 00:22:38;;;;;;;7.28;2.88;;;21.70;80.50;;;;;;5055955;28;20054;-73
2022/08/10 00:25:05;;;;;;;6.13;3.03;;;21.70;80.20;;;;;;5056794;28;20048;-73
2022/08/10 00:27:31;;;;;;;5.13;2.92;;;21.70;80.60;;;;;;5056909;28;20116;-73
2022/08/10 00:29:58;;;;;;;4.78;3.20;;;21.60;80.40;;;;;;5053585;28;20040;-73
2022/08/10 00:32:23;;;;;;;7.00;2.92;;;21.60;80.70;;;;;;5052351;28;20017;-73
2022/08/10 00:34:50;;;;;;;4.05;2.67;;;21.50;81.30;;;;;;5055754;28;20036;-73
2022/08/10 00:37:17;;;;;;;3.88;2.70;;;21.40;80.70;;;;;;5056571;28;20377;-73
2022/08/10 00:39:43;;;;;;;4.43;2.90;;;21.40;82.10;;;;;;5055351;28;20087;-73
2022/08/10 00:42:11;;;;;;;5.28;2.65;;;21.30;82.10;;;;;;5056518;28;20029;-73
2022/08/10 00:44:40;;;;;;;4.13;2.67;;;21.40;82.70;;;;;;5056098;28;20025;-73
2022/08/10 00:47:07;;;;;;;4.05;2.70;;;21.30;82.10;;;;;;5055029;28;20401;-73
2022/08/10 00:49:33;;;;;;;5.45;2.70;;;21.30;82.40;;;;;;5056987;28;20039;-73
2022/08/10 00:51:59;;;;;;;3.72;3.03;;;21.30;82.50;;;;;;5056512;28;20124;-73
2022/08/10 00:54:25;;;;;;;5.70;2.65;;;21.20;82.60;;;;;;5056730;28;20021;-73
2022/08/10 00:56:51;;;;;;;5.30;3.45;;;21.20;82.40;;;;;;5048275;28;20163;-73
2022/08/10 00:59:17;;;;;;;5.38;2.60;;;21.20;82.90;;;;;;5055897;28;20048;-73
2022/08/10 01:01:43;;;;;;;4.07;3.17;;;21.10;83.10;;;;;;5056434;28;20051;-73
2022/08/10 01:04:09;;;;;;;6.20;2.83;;;21.10;82.80;;;;;;5055571;28;20096;-73
2022/08/10 01:06:58;;;;;;;3.63;2.40;;;21.00;82.70;;;;;;5056150;28;20083;-73
2022/08/10 01:09:33;;;;;;;4.72;2.90;;;21.00;83.20;;;;;;5056079;28;20024;-73
2022/08/10 01:12:08;;;;;;;4.97;2.60;;;20.90;83.00;;;;;;5056126;28;20100;-73
2022/08/10 01:14:46;;;;;;;5.72;3.03;;;21.00;83.30;;;;;;5056204;28;20021;-73
2022/08/10 01:17:46;;;;;;;6.10;2.78;;;20.90;84.00;;;;;;5056010;28;20033;-73
2022/08/10 01:20:17;;;;;;;4.40;2.92;;;20.90;84.50;;;;;;5046856;28;20480;-73
2022/08/10 01:22:55;;;;;;;5.88;3.75;;;20.80;85.00;;;;;;5044374;28;20060;-73
2022/08/10 01:25:20;;;;;;;4.07;3.00;;;20.80;85.30;;;;;;5047519;28;20124;-73
2022/08/10 01:28:18;;;;;;;3.97;2.78;;;20.80;85.20;;;;;;5071007;28;20048;-73
2022/08/10 01:30:45;;;;;;;4.78;3.13;;;20.80;85.30;;;;;;5057511;28;20071;-73
2022/08/10 01:33:17;;;;;;;8.43;2.70;;;20.70;85.70;;;;;;5060569;28;20020;-73
2022/08/10 01:35:54;;;;;;;4.53;2.50;;;20.70;85.90;;;;;;5054461;28;20017;-73
2022/08/10 01:38:30;;;;;;;5.75;2.70;;;20.70;86.90;;;;;;5054647;28;20460;-73
2022/08/10 01:41:07;;;;;;;3.42;2.63;;;20.60;87.00;;;;;;5060366;28;20025;-73
2022/08/10 01:43:39;;;;;;;5.00;3.30;;;20.60;86.90;;;;;;5060000;28;20385;-73
2022/08/10 01:46:08;;;;;;;3.95;2.83;;;20.60;87.30;;;;;;5058422;28;20059;-73
2022/08/10 01:48:40;;;;;;;4.38;2.90;;;20.50;87.80;;;;;;5060176;28;20021;-73
2022/08/10 01:51:21;;;;;;;6.90;2.72;;;20.50;88.20;;;;;;5048633;28;20033;-73
2022/08/10 01:53:52;;;;;;;4.40;2.88;;;20.50;89.60;;;;;;5058001;28;20096;-73
2022/08/10 01:56:21;;;;;;;4.28;3.05;;;20.50;89.50;;;;;;5060327;28;20100;-73
2022/08/10 01:58:56;;;;;;;4.03;2.85;;;20.40;89.50;;;;;;5059732;28;20017;-73
2022/08/10 02:01:27;;;;;;;3.28;2.28;;;20.40;89.10;;;;;;5060101;28;20075;-73
2022/08/10 02:03:59;;;;;;;4.20;2.90;;;20.30;88.80;;;;;;5060072;28;20025;-73
2022/08/10 02:06:29;;;;;;;9.82;3.15;;;20.30;89.10;;;;;;5059967;28;20056;-73
2022/08/10 02:08:56;;;;;;;;;;;20.30;89.30;;;;;;5060557;28;20051;-73
2022/08/10 02:11:24;;;;;;;6.15;2.63;;;20.30;90.10;;;;;;5046161;28;19927;-73
2022/08/10 02:13:51;;;;;;;4.55;2.88;;;20.30;90.50;;;;;;5049143;28;20025;-73
2022/08/10 02:16:19;;;;;;;4.18;2.92;;;20.30;91.00;;;;;;5058341;28;20024;-73
2022/08/10 02:18:45;;;;;;;5.03;3.33;;;20.20;91.20;;;;;;5051135;28;20041;-73
2022/08/10 02:21:12;;;;;;;7.10;3.22;;;20.20;91.70;;;;;;5057573;28;20108;-73
2022/08/10 02:23:40;;;;;;;4.32;3.05;;;20.20;91.60;;;;;;5059100;28;20074;-73
2022/08/10 02:26:08;;;;;;;4.15;3.20;;;20.30;91.30;;;;;;5051696;28;20024;-73
2022/08/10 02:28:37;;;;;;;5.53;2.45;;;20.20;91.40;;;;;;5047494;28;20025;-73
2022/08/10 02:31:10;;;;;;;4.75;2.72;;;20.20;91.10;;;;;;5058711;28;20017;-73
2022/08/10 02:33:39;;;;;;;3.85;3.00;;;20.20;91.00;;;;;;5050086;28;20018;-73
2022/08/10 02:36:08;;;;;;;3.63;3.10;;;20.20;91.30;;;;;;5059083;28;20021;-73
2022/08/10 02:38:40;;;;;;;4.68;2.35;;;20.20;91.20;;;;;;5059316;28;20514;-73
2022/08/10 02:41:47;;;;;;;4.95;2.90;;;20.20;90.90;;;;;;5056364;28;20025;-73
2022/08/10 02:44:28;;;;;;;4.07;3.05;;;20.10;91.50;;;;;;5046134;28;20037;-73
2022/08/10 02:47:20;;;;;;;6.75;2.85;;;20.10;91.80;;;;;;5058564;28;21461;-73
2022/08/10 02:50:01;;;;;;;4.75;3.00;;;20.00;92.40;;;;;;5058902;28;20037;-73
2022/08/10 02:52:40;;;;;;;3.22;2.70;;;20.00;92.40;;;;;;5059069;28;20017;-73
2022/08/10 02:55:16;;;;;;;7.95;3.17;;;20.10;92.30;;;;;;5048573;28;20039;-73
2022/08/10 02:57:48;;;;;;;3.50;2.90;;;20.10;92.50;;;;;;5058465;28;20184;-73
2022/08/10 03:00:14;;;;;;;5.78;3.40;;;20.00;92.50;;;;;;5053242;28;20098;-73
2022/08/10 03:02:45;;;;;;;4.75;3.20;;;20.00;92.80;;;;;;5058505;28;20115;-73
2022/08/10 03:05:13;;;;;;;5.05;3.10;;;19.90;93.00;;;;;;5055044;28;20032;-72
2022/08/10 03:08:00;;;;;;;4.88;2.95;;;19.90;93.50;;;;;;5054450;28;20025;-73
2022/08/10 03:10:32;;;;;;;5.05;3.13;;;19.90;93.00;;;;;;5047801;28;20512;-73
2022/08/10 03:13:07;;;;;;;5.50;3.17;;;19.90;93.70;;;;;;5058269;28;20021;-73
2022/08/10 03:15:35;;;;;;;5.35;3.10;;;19.90;93.90;;;;;;5058624;28;20025;-73
2022/08/10 03:18:02;;;;;;;5.20;3.17;;;19.80;93.80;;;;;;5046855;28;20045;-73
2022/08/10 03:20:32;;;;;;;7.93;3.83;;;19.80;94.20;;;;;;5049745;28;20049;-73
2022/08/10 03:22:59;;;;;;;5.65;3.38;;;19.70;94.50;;;;;;5057058;28;20031;-73
2022/08/10 03:25:25;;;;;;;7.03;4.05;;;19.70;94.60;;;;;;5058510;28;20107;-73
2022/08/10 03:27:53;;;;;;;7.38;3.45;;;19.70;94.30;;;;;;5057826;28;20032;-73
2022/08/10 03:30:19;;;;;;;7.18;3.13;;;19.60;94.70;;;;;;5058224;28;20045;-73
2022/08/10 03:32:46;;;;;;;5.30;2.80;;;19.60;95.10;;;;;;5058227;28;20080;-73
2022/08/10 03:35:13;;;;;;;7.13;3.20;;;19.50;94.80;;;;;;5052978;28;20112;-73
2022/08/10 03:37:39;;;;;;;7.88;3.50;;;19.50;95.00;;;;;;5058231;28;20100;-73
2022/08/10 03:40:06;;;;;;;6.43;3.22;;;19.50;94.90;;;;;;5058033;28;20060;-74
2022/08/10 03:42:35;;;;;;;5.93;3.58;;;19.40;95.50;;;;;;5057601;28;20028;-73
2022/08/10 03:45:03;;;;;;;5.20;3.38;;;19.30;95.50;;;;;;5057936;28;20108;-73
2022/08/10 03:47:31;;;;;;;4.45;3.60;;;19.30;95.90;;;;;;5058200;28;20032;-73
2022/08/10 03:49:58;;;;;;;4.30;3.70;;;19.40;95.80;;;;;;5057955;28;20025;-73
2022/08/10 03:52:25;;;;;;;4.43;3.40;;;19.40;96.70;;;;;;5056540;28;20392;-73
2022/08/10 03:54:51;;;;;;;7.00;3.47;;;19.60;97.00;;;;;;5057818;28;20362;-73
2022/08/10 03:57:18;;;;;;;5.85;3.33;;;19.60;96.60;;;;;;5057863;28;20083;-73
2022/08/10 03:59:44;;;;;;;4.80;3.30;;;19.60;96.40;;;;;;5057850;28;20362;-73
2022/08/10 04:02:10;;;;;;;5.93;3.90;;;19.60;96.20;;;;;;5058104;28;20025;-72
2022/08/10 04:04:36;;;;;;;4.25;3.55;;;19.60;96.60;;;;;;5057309;28;20017;-73
2022/08/10 04:07:03;;;;;;;3.65;3.13;;;19.50;96.80;;;;;;5057928;28;20039;-73
2022/08/10 04:09:35;;;;;;;4.63;3.38;;;19.50;97.20;;;;;;5057865;28;20063;-73
2022/08/10 04:12:02;;;;;;;6.93;3.53;;;19.50;97.90;;;;;;5048607;28;20112;-73
2022/08/10 04:14:28;;;;;;;5.28;3.72;;;19.50;97.50;;;;;;5053198;28;20025;-73
2022/08/10 04:16:54;;;;;;;8.15;3.30;;;19.50;97.80;;;;;;5057404;28;20021;-73
2022/08/10 04:19:21;;;;;;;5.20;3.60;;;19.50;97.70;;;;;;5057306;28;20041;-73
2022/08/10 04:22:05;;;;;;;11.70;4.22;;;19.50;97.60;;;;;;5057319;28;20017;-73
2022/08/10 04:24:33;;;;;;;5.00;3.30;;;19.40;97.50;;;;;;5057562;28;20025;-73
2022/08/10 04:27:00;;;;;;;3.90;3.50;;;19.40;97.70;;;;;;5057041;28;20021;-73
2022/08/10 04:29:26;;;;;;;5.70;3.28;;;19.40;98.00;;;;;;5057197;28;20087;-73
2022/08/10 04:31:52;;;;;;;6.00;4.20;;;19.30;97.90;;;;;;5057194;28;20031;-73
2022/08/10 04:34:19;;;;;;;9.55;3.72;;;19.30;97.90;;;;;;5057522;28;20088;-73
2022/08/10 04:36:48;;;;;;;5.57;3.40;;;19.30;98.10;;;;;;5053630;28;20025;-73
2022/08/10 04:39:14;;;;;;;5.72;3.63;;;19.20;98.20;;;;;;5055008;28;20440;-73
2022/08/10 04:41:41;;;;;;;7.30;4.18;;;19.20;97.90;;;;;;5057079;28;20029;-73
2022/08/10 04:44:07;;;;;;;6.05;3.47;;;19.20;97.80;;;;;;5056856;28;20021;-73
2022/08/10 04:46:33;;;;;;;8.95;4.25;;;19.10;98.50;;;;;;5043922;28;20128;-73
2022/08/10 04:48:59;;;;;;;6.55;3.80;;;19.10;98.80;;;;;;5057017;28;20079;-73
2022/08/10 04:51:24;;;;;;;7.85;3.85;;;19.00;99.60;;;;;;5057056;28;20579;-73
2022/08/10 04:53:51;;;;;;;11.73;3.90;;;19.00;99.40;;;;;;5057121;28;20510;-73
2022/08/10 04:56:17;;;;;;;4.22;3.72;;;19.00;99.30;;;;;;5056913;28;20049;-73
2022/08/10 04:58:43;;;;;;;6.47;4.18;;;18.90;99.40;;;;;;5047742;28;20462;-73
2022/08/10 05:01:09;;;;;;;6.63;3.85;;;18.90;99.60;;;;;;5056675;28;20039;-73
2022/08/10 05:03:35;;;;;;;6.20;4.20;;;18.90;99.60;;;;;;5056847;28;20439;-73
2022/08/10 05:06:00;;;;;;;8.60;4.53;;;18.90;99.90;;;;;;5054770;28;20037;-73
2022/08/10 05:08:26;;;;;;;4.15;3.75;;;18.90;99.90;;;;;;5056902;28;20045;-73
2022/08/10 05:10:52;;;;;;;7.40;3.67;;;18.90;99.90;;;;;;5043441;28;20049;-73
2022/08/10 05:13:18;;;;;;;4.35;3.80;;;19.00;99.90;;;;;;5056262;28;20009;-73
2022/08/10 05:15:44;;;;;;;9.35;3.97;;;19.00;99.90;;;;;;5047119;28;20025;-73
2022/08/10 05:18:11;;;;;;;4.25;3.60;;;19.00;99.90;;;;;;5056333;28;20081;-73
2022/08/10 05:20:37;;;;;;;5.22;3.80;;;19.10;99.90;;;;;;5056596;28;20477;-73
2022/08/10 05:23:03;;;;;;;6.05;3.60;;;19.20;99.90;;;;;;5056291;28;20602;-73
2022/08/10 05:25:29;;;;;;;6.43;3.92;;;19.20;99.90;;;;;;5056658;28;20060;-73
2022/08/10 05:27:55;;;;;;;7.90;4.15;;;19.30;99.90;;;;;;5048840;28;20048;-73
2022/08/10 05:30:22;;;;;;;6.85;3.95;;;19.40;99.90;;;;;;5049984;28;20021;-73
2022/08/10 05:32:48;;;;;;;6.70;3.92;;;19.50;99.90;;;;;;5056488;28;20092;-73
2022/08/10 05:35:14;;;;;;;7.13;3.90;;;19.50;99.50;;;;;;5055439;28;20025;-73
2022/08/10 05:37:41;;;;;;;4.93;3.67;;;19.60;99.60;;;;;;5056636;28;20025;-73
2022/08/10 05:40:08;;;;;;;9.13;4.40;;;19.70;99.40;;;;;;5056586;28;20075;-73
2022/08/10 05:42:34;;;;;;;6.47;4.13;;;19.70;99.60;;;;;;5056424;28;20396;-73
2022/08/10 05:45:00;;;;;;;6.30;3.78;;;19.80;99.60;;;;;;5056478;28;20056;-73
2022/08/10 05:47:26;;;;;;;6.20;3.70;;;19.80;99.60;;;;;;5054901;28;20029;-73
2022/08/10 05:49:52;;;;;;;7.70;3.95;;;19.90;99.60;;;;;;5056426;28;20132;-73
2022/08/10 05:52:19;;;;;;;5.43;3.97;;;19.90;99.50;;;;;;5056724;28;20018;-75
2022/08/10 05:54:46;;;;;;;5.90;3.58;;;20.00;99.90;;;;;;5053955;28;20083;-75
2022/08/10 05:57:15;;;;;;;7.93;4.15;;;20.00;99.90;;;;;;5056242;28;20021;-75
2022/08/10 05:59:46;;;;;;;10.07;4.15;;;20.00;99.90;;;;;;5055415;28;20071;-75
2022/08/10 06:02:27;;;;;;;6.80;4.00;;;20.10;99.50;;;;;;5056168;28;20021;-75
2022/08/10 06:04:56;;;;;;;6.47;4.10;;;20.20;99.70;;;;;;5056261;28;20087;-75
2022/08/10 06:07:25;;;;;;;12.13;4.47;;;20.20;99.90;;;;;;5056547;28;20021;-75
2022/08/10 06:09:53;;;;;;;6.57;3.43;;;20.30;99.90;;;;;;5056330;28;20499;-75
2022/08/10 06:12:20;;;;;;;10.32;4.38;;;20.40;99.30;;;;;;5056331;28;20676;-75
2022/08/10 06:15:01;;;;;;;8.52;4.10;;;20.50;99.30;;;;;;5056702;28;20454;-76
2022/08/10 06:17:30;;;;;;;10.35;4.53;;;20.60;99.90;;;;;;5059746;28;20045;-76
2022/08/10 06:19:58;;;;;;;8.88;4.07;;;20.70;99.00;;;;;;5059485;28;20037;-76
2022/08/10 06:22:31;;;;;;;9.40;3.85;;;20.70;99.40;;;;;;5058590;28;20028;-76
2022/08/10 06:25:00;;;;;;;10.30;4.28;;;20.80;98.50;;;;;;5057256;28;20488;-76
2022/08/10 06:27:26;;;;;;;5.25;3.67;;;20.90;98.90;;;;;;5057029;28;20520;-76
2022/08/10 06:29:53;;;;;;;6.65;4.20;;;21.00;98.50;;;;;;5058636;28;20048;-76
2022/08/10 06:32:24;;;;;;;8.18;4.20;;;21.10;97.50;;;;;;5058828;28;20036;-76
2022/08/10 06:34:53;;;;;;;8.70;3.42;;;21.30;97.40;;;;;;5059382;28;20100;-76
2022/08/10 06:37:22;;;;;;;6.97;3.67;;;21.30;97.10;;;;;;5058872;28;20024;-76
2022/08/10 06:39:48;;;;;;;10.45;4.32;;;21.50;98.10;;;;;;5058619;28;20040;-76
2022/08/10 06:42:45;;;;;;;8.05;3.60;;;21.60;96.50;;;;;;5057257;28;20058;-75
2022/08/10 06:45:18;;;;;;;10.20;4.15;;;21.70;96.90;;;;;;5058132;28;20562;-76
2022/08/10 06:48:13;;;;;;;8.15;4.03;;;21.80;96.80;;;;;;5058266;28;20025;-76
2022/08/10 06:50:43;;;;;;;7.70;3.97;;;21.90;96.40;;;;;;5054897;28;20037;-76
2022/08/10 06:53:17;;;;;;;12.23;3.95;;;22.10;96.20;;;;;;5058147;28;20021;-76
2022/08/10 06:56:04;;;;;;;8.73;3.97;;;22.20;96.00;;;;;;5058023;28;20028;-76
2022/08/10 06:58:38;;;;;;;6.03;3.75;;;22.40;95.80;;;;;;5057569;28;20037;-76
2022/08/10 07:01:08;;;;;;;9.63;4.25;;;22.60;95.20;;;;;;5058180;28;20056;-76
2022/08/10 07:03:46;;;;;;;7.20;3.50;;;22.70;94.70;;;;;;5057937;28;20025;-76
2022/08/10 07:06:14;;;;;;;7.18;4.38;;;22.80;94.30;;;;;;5058102;28;20025;-77
2022/08/10 07:08:41;;;;;;;6.93;3.65;;;23.00;94.40;;;;;;5057874;28;20116;-77
2022/08/10 07:11:08;;;;;;;12.02;3.83;;;23.20;94.80;;;;;;5057812;28;20459;-77
2022/08/10 07:13:38;;;;;;;9.80;3.97;;;23.40;94.40;;;;;;5057628;28;20024;-77
2022/08/10 07:16:09;;;;;;;9.13;3.83;;;23.60;94.50;;;;;;5046745;28;20056;-78
2022/08/10 07:18:36;;;;;;;5.18;3.53;;;23.70;93.80;;;;;;5046980;28;20048;-76
2022/08/10 07:21:04;;;;;;;13.95;3.97;;;23.80;93.80;;;;;;5054903;28;20025;-76
2022/08/10 07:23:30;;;;;;;7.25;3.22;;;24.00;93.90;;;;;;5058538;28;20027;-76
2022/08/10 07:25:58;;;;;;;6.78;3.45;;;24.20;93.40;;;;;;5049950;28;20091;-75
2022/08/10 07:28:25;;;;;;;5.05;3.30;;;24.40;94.30;;;;;;5045215;28;20127;-75
2022/08/10 07:30:52;;;;;;;4.53;3.10;;;24.50;93.20;;;;;;5051557;28;20018;-75
2022/08/10 07:33:20;;;;;;;8.77;3.42;;;24.60;93.30;;;;;;5049618;28;20037;-75
2022/08/10 07:35:49;;;;;;;16.17;4.03;;;24.80;93.00;;;;;;5058180;28;20044;-75
2022/08/10 07:38:25;;;;;;;9.15;3.97;;;25.10;93.50;;;;;;5058414;28;20044;-75
2022/08/10 07:40:52;;;;;;;7.88;3.15;;;25.30;92.00;;;;;;5046365;28;20029;-75
2022/08/10 07:43:22;;;;;;;9.52;3.30;;;25.50;92.30;;;;;;5058038;28;20456;-75
2022/08/10 07:45:49;;;;;;;9.52;3.30;;;25.70;91.10;;;;;;5056465;28;20024;-75
2022/08/10 07:48:21;;;;;;;9.43;3.75;;;25.80;91.20;;;;;;5057509;28;20514;-75
2022/08/10 07:50:50;;;;;;;7.68;3.13;;;26.00;91.20;;;;;;5046076;28;20048;-76
2022/08/10 07:53:20;;;;;;;5.95;3.40;;;26.20;90.90;;;;;;5056937;28;20554;-75
2022/08/10 07:55:48;;;;;;;7.40;3.65;;;26.40;91.10;;;;;;5043763;28;20516;-76
2022/08/10 07:58:17;;;;;;;7.10;3.40;;;26.60;89.80;;;;;;5056296;28;20051;-76
2022/08/10 08:00:45;;;;;;;5.43;2.70;;;26.70;90.10;;;;;;5057724;28;20029;-76
2022/08/10 08:03:13;;;;;;;6.55;2.67;;;26.90;90.20;;;;;;5057842;28;20025;-76
2022/08/10 08:05:40;;;;;;;7.72;2.72;;;27.10;88.10;;;;;;5057715;28;20033;-76
2022/08/10 08:08:07;;;;;;;8.13;3.08;;;27.20;87.00;;;;;;5052417;28;20031;-77
2022/08/10 08:10:34;;;;;;;4.97;2.70;;;27.40;88.40;;;;;;5057589;28;20021;-76
2022/08/10 08:26:06;;;;;;;4.93;2.50;;;27.70;84.30;;;;;;5143328;27;20475;-75
2022/08/10 08:28:34;;;;;;;4.70;2.22;;;28.40;78.20;;;;;;5134716;28;20023;-75
2022/08/10 08:31:01;;;;;;;4.32;2.72;;;28.50;80.00;;;;;;5134312;28;20011;-75
2022/08/10 08:33:29;;;;;;;6.55;2.47;;;28.60;79.10;;;;;;5131598;28;20417;-75
2022/08/10 08:35:56;;;;;;;5.25;2.30;;;28.70;77.60;;;;;;5134773;28;20060;-74
2022/08/10 08:38:23;;;;;;;6.03;2.55;;;28.90;77.10;;;;;;5134799;28;20383;-74
2022/08/10 08:41:13;;;;;;;3.50;2.20;;;29.00;77.00;;;;;;5134786;28;20011;-74
2022/08/10 08:43:54;;;;;;;3.20;2.17;;;29.10;76.00;;;;;;5134919;28;20026;-74
2022/08/10 08:46:47;;;;;;;5.22;2.38;;;29.10;73.50;;;;;;5134009;28;20023;-74
2022/08/10 08:49:41;;;;;;;6.40;2.65;;;29.20;76.40;;;;;;5134164;28;20505;-75
2022/08/10 08:52:26;;;;;;;7.90;2.38;;;29.40;73.20;;;;;;5133146;28;20050;-74
2022/08/10 08:55:10;;;;;;;7.88;2.50;;;29.60;73.60;;;;;;5134263;28;20031;-75
2022/08/10 08:57:53;;;;;;;6.20;2.30;;;29.70;70.90;;;;;;5127855;28;20103;-75
2022/08/10 09:00:44;;;;;;;4.18;2.45;;;29.90;69.50;;;;;;5114530;28;20019;-73
2022/08/10 09:03:42;;;;;;;6.75;2.33;;;29.90;70.50;;;;;;5134032;28;20027;-73
2022/08/10 09:06:36;;;;;;;4.15;2.28;;;30.10;66.60;;;;;;5091880;28;20110;-73
2022/08/10 09:09:31;;;;;;;3.55;1.73;;;30.20;64.40;;;;;;5134631;28;20020;-73
2022/08/10 09:12:15;;;;;;;2.78;1.90;;;30.30;63.70;;;;;;5108884;28;20039;-72
2022/08/10 09:14:58;;;;;;;3.85;2.90;;;30.50;63.00;;;;;;5122793;28;20055;-73
2022/08/10 09:17:31;;;;;;;7.05;2.30;;;30.60;61.10;;;;;;5133002;28;20020;-73
2022/08/10 09:20:00;;;;;;;8.02;1.67;;;30.70;60.20;;;;;;5132441;27;20019;-73
2022/08/10 09:22:45;;;;;;;3.70;1.92;;;30.80;60.40;;;;;;5113863;28;20391;-73
2022/08/10 09:25:40;;;;;;;7.68;2.00;;;30.80;59.60;;;;;;5126011;28;20411;-72
2022/08/10 09:28:08;;;;;;;5.75;2.03;;;30.90;59.70;;;;;;5116480;28;20044;-73
2022/08/10 09:30:40;;;;;;;6.70;2.08;;;30.90;60.10;;;;;;5120255;28;20030;-72
2022/08/10 09:33:15;;;;;;;3.70;2.22;;;31.10;60.10;;;;;;5119714;28;20034;-73
2022/08/10 09:36:06;;;;;;;6.25;2.08;;;31.20;57.80;;;;;;5109320;28;20028;-74
2022/08/10 09:38:57;;;;;;;6.68;2.20;;;31.40;56.20;;;;;;5099414;28;20475;-74
2022/08/10 09:41:50;;;;;;;6.72;2.05;;;31.60;56.60;;;;;;5095589;28;20021;-72
2022/08/10 09:44:42;;;;;;;4.90;2.58;;;31.90;57.00;;;;;;5109003;28;20023;-75
2022/08/10 09:47:44;;;;;;;6.10;1.95;;;32.10;56.80;;;;;;5109015;28;20020;-76
2022/08/10 09:50:23;;;;;;;6.75;2.13;;;32.20;56.00;;;;;;5115574;28;20233;-75
2022/08/10 09:53:01;;;;;;;3.13;1.77;;;32.30;56.70;;;;;;5110730;28;20479;-75
2022/08/10 09:55:35;;;;;;;7.03;2.05;;;32.30;55.80;;;;;;5119607;28;20045;-75
2022/08/10 09:58:30;;;;;;;4.63;2.65;;;32.40;54.80;;;;;;5102689;28;20110;-77
2022/08/10 10:01:11;;;;;;;3.38;2.33;;;32.50;55.00;;;;;;5099988;28;20048;-79
2022/08/10 10:04:03;;;;;;;5.70;1.80;;;32.60;55.90;;;;;;5117732;28;20097;-79
2022/08/10 10:06:41;;;;;;;5.75;1.90;;;32.60;55.10;;;;;;5119723;28;20027;-81
2022/08/10 10:09:41;;;;;;;3.75;1.88;;;32.80;54.00;;;;;;5119675;28;20030;-78
2022/08/10 10:12:25;;;;;;;3.75;2.00;;;32.80;53.60;;;;;;5118709;28;20084;-78
2022/08/10 10:15:19;;;;;;;6.70;1.98;;;32.90;52.80;;;;;;5118477;28;20089;-77
2022/08/10 10:18:06;;;;;;;3.15;2.10;;;32.90;54.10;;;;;;5099640;28;20030;-78
2022/08/10 10:20:54;;;;;;;13.43;2.50;;;32.90;52.40;;;;;;5118349;28;20032;-77
2022/08/10 10:23:47;;;;;;;5.18;2.30;;;33.10;53.10;;;;;;5099892;28;20027;-79
2022/08/10 10:26:41;;;;;;;3.40;2.30;;;33.10;54.80;;;;;;5099892;28;20039;-78
2022/08/10 10:29:13;;;;;;;4.60;1.90;;;33.20;52.60;;;;;;5110469;28;20031;-78
2022/08/10 10:32:02;;;;;;;6.70;1.80;;;33.20;52.60;;;;;;5115588;28;20016;-78
2022/08/10 10:34:46;;;;;;;3.28;1.98;;;33.40;51.20;;;;;;5118133;28;20024;-76
2022/08/10 10:37:13;;;;;;;3.35;2.00;;;33.40;52.60;;;;;;5117233;28;20022;-78
2022/08/10 10:39:43;;;;;;;5.55;2.38;;;33.40;50.50;;;;;;5118016;28;20028;-78
2022/08/10 10:42:08;;;;;;;3.22;2.00;;;33.40;50.40;;;;;;5117486;28;20035;-78
2022/08/10 10:45:00;;;;;;;5.63;2.00;;;33.50;50.00;;;;;;5098311;28;20031;-78
2022/08/10 10:47:58;;;;;;;3.47;1.95;;;33.60;50.30;;;;;;5096853;28;20026;-77
2022/08/10 10:50:55;;;;;;;3.75;2.13;;;33.50;50.50;;;;;;5115032;28;20028;-78
2022/08/10 10:53:33;;;;;;;2.28;1.90;;;33.50;51.60;;;;;;5096068;28;20020;-78
2022/08/10 10:56:15;;;;;;;6.82;1.60;;;33.50;49.50;;;;;;5115119;28;20023;-78
2022/08/10 10:59:01;;;;;;;2.10;1.58;;;33.60;50.60;;;;;;5114280;28;20491;-78
2022/08/10 11:01:34;;;;;;;7.65;1.50;;;33.70;50.50;;;;;;5116093;28;20031;-78
2022/08/10 11:04:34;;;;;;;4.88;2.35;;;33.70;51.40;;;;;;5117629;28;20019;-78
2022/08/10 11:07:09;;;;;;;6.38;1.67;;;33.80;48.10;;;;;;5099229;28;20084;-78
2022/08/10 11:10:29;;;;;;;2.80;1.77;;;33.80;48.50;;;;;;5117967;28;20023;-78
2022/08/10 11:13:11;;;;;;;6.57;2.25;;;33.90;49.50;;;;;;5034409;28;20037;-79
2022/08/10 11:15:43;;;;;;;4.18;1.75;;;34.00;47.10;;;;;;5107705;28;20032;-77
2022/08/10 11:18:21;;;;;;;2.78;1.88;;;34.10;47.20;;;;;;5115596;28;20027;-78
2022/08/10 11:21:26;;;;;;;2.97;1.95;;;34.30;47.40;;;;;;5110159;28;20023;-79
2022/08/10 11:24:08;;;;;;;2.92;1.52;;;34.30;48.40;;;;;;5095127;28;20099;-80
2022/08/10 11:26:55;;;;;;;3.20;1.63;;;34.50;47.60;;;;;;5084713;28;20387;-78
2022/08/10 11:29:28;;;;;;;2.03;1.20;;;34.60;47.60;;;;;;5116731;28;20061;-79
2022/08/10 11:32:26;;;;;;;3.55;1.67;;;34.50;48.70;;;;;;5099005;28;20386;-78
2022/08/10 11:35:01;;;;;;;2.22;1.50;;;34.50;45.90;;;;;;5100742;28;20498;-78
2022/08/10 11:38:06;;;;;;;2.85;1.50;;;34.50;47.30;;;;;;5117657;28;20016;-78
2022/08/10 11:40:48;;;;;;;6.60;1.45;;;34.60;45.70;;;;;;5064155;28;20027;-78
2022/08/10 11:43:21;;;;;;;3.78;1.95;;;34.60;45.50;;;;;;5117728;28;20031;-77
2022/08/10 11:46:22;;;;;;;4.82;1.60;;;34.60;47.20;;;;;;5107999;28;20051;-78
2022/08/10 11:49:09;;;;;;;2.03;1.35;;;34.70;44.10;;;;;;5088510;28;20031;-77
2022/08/10 11:51:46;;;;;;;4.20;1.92;;;34.50;43.10;;;;;;5117674;28;20035;-79
2022/08/10 11:54:15;;;;;;;6.10;1.60;;;34.60;44.60;;;;;;5117326;28;20082;-78
2022/08/10 11:56:46;;;;;;;5.75;1.27;;;34.70;42.80;;;;;;5117435;28;20034;-79
2022/08/10 12:02:01;;;;;;;2.75;1.30;;;34.80;44.50;;;;;;5117422;28;20425;-79
2022/08/10 12:04:28;;;;;;;2.45;1.40;;;34.80;43.10;;;;;;5117290;28;20513;-77
2022/08/10 12:06:56;;;;;;;2.70;1.40;;;34.70;43.30;;;;;;5117678;28;20027;-78
2022/08/10 12:09:24;;;;;;;5.25;1.58;;;34.70;43.80;;;;;;5093471;28;20024;-77
2022/08/10 12:11:51;;;;;;;3.08;1.63;;;34.90;44.00;;;;;;5117447;28;20027;-79
2022/08/10 12:14:23;;;;;;;3.85;1.45;;;35.10;43.00;;;;;;5099092;28;20023;-78
2022/08/10 12:17:01;;;;;;;4.47;1.55;;;35.30;43.00;;;;;;5117064;28;20019;-78
2022/08/10 12:19:36;;;;;;;2.53;1.40;;;35.20;44.00;;;;;;5098857;28;20043;-78
2022/08/10 12:22:07;;;;;;;5.00;1.45;;;35.20;45.00;;;;;;5116697;28;20437;-79
2022/08/10 12:24:52;;;;;;;3.15;1.65;;;35.20;44.60;;;;;;5101170;28;20070;-77
2022/08/10 12:27:25;;;;;;;2.88;1.73;;;35.20;43.90;;;;;;5112051;28;20035;-78
2022/08/10 12:29:57;;;;;;;3.60;2.00;;;35.40;46.00;;;;;;5106461;28;20027;-78
2022/08/10 12:32:28;;;;;;;2.90;1.50;;;35.50;45.60;;;;;;5116637;28;20505;-77
2022/08/10 12:35:11;;;;;;;5.35;2.17;;;35.70;45.70;;;;;;5109628;28;20035;-79
2022/08/10 12:38:21;;;;;;;3.83;2.28;;;35.70;44.70;;;;;;5117262;28;20024;-75
2022/08/10 12:40:56;;;;;;;7.18;2.50;;;35.70;44.90;;;;;;5109520;28;20019;-78
2022/08/10 12:43:35;;;;;;;3.42;2.33;;;35.80;44.30;;;;;;5117085;28;20031;-80
2022/08/10 12:46:40;;;;;;;6.43;3.40;;;35.70;44.40;;;;;;5115790;28;20016;-79
2022/08/10 12:49:27;;;;;;;4.03;2.65;;;35.70;44.40;;;;;;5116427;28;20088;-79
2022/08/10 12:52:12;;;;;;;5.10;2.95;;;35.60;43.60;;;;;;5099076;28;20694;-79
2022/08/10 12:54:40;;;;;;;7.70;2.85;;;35.50;42.80;;;;;;5116693;28;20028;-79
2022/08/10 12:57:15;;;;;;;6.70;4.07;;;35.70;45.60;;;;;;5116659;28;20098;-78
2022/08/10 12:59:44;;;;;;;5.50;4.20;;;35.80;44.10;;;;;;5090884;28;20426;-79
2022/08/10 13:02:31;;;;;;;6.27;4.40;;;36.00;43.50;;;;;;5101935;28;20024;-78
2022/08/10 13:05:00;;;;;;;7.72;4.40;;;36.00;42.40;;;;;;5112126;28;20024;-78
2022/08/10 13:07:31;;;;;;;6.13;4.10;;;36.10;44.20;;;;;;5120576;28;20107;-79
2022/08/10 13:10:04;;;;;;;4.88;4.40;;;36.00;44.40;;;;;;5106998;28;20023;-79
2022/08/10 13:12:32;;;;;;;5.10;3.80;;;36.00;42.20;;;;;;5097935;28;20032;-80
2022/08/10 13:15:29;;;;;;;9.68;4.65;;;36.10;43.90;;;;;;5109110;28;20028;-79
2022/08/10 13:17:59;;;;;;;6.55;4.28;;;36.10;42.60;;;;;;5118502;28;20058;-79
2022/08/10 13:20:27;;;;;;;;;;;36.30;43.70;;;;;;5102433;28;20149;-79
2022/08/10 13:22:57;;;;;;;8.75;4.65;;;36.40;42.90;;;;;;5120376;28;20279;-79
2022/08/10 13:25:37;;;;;;;6.22;4.82;;;36.40;42.20;;;;;;5119692;28;20122;-79
2022/08/10 13:28:07;;;;;;;8.07;4.70;;;36.50;41.90;;;;;;5099483;28;20045;-79
2022/08/10 13:30:33;;;;;;;6.18;4.22;;;36.50;42.50;;;;;;5120181;28;20031;-81
2022/08/10 13:33:01;;;;;;;5.63;4.38;;;36.50;42.30;;;;;;5119319;28;20514;-80
2022/08/10 13:35:28;;;;;;;7.82;4.00;;;36.60;43.30;;;;;;5119873;28;20445;-81
2022/08/10 13:37:56;;;;;;;8.60;5.38;;;36.60;43.00;;;;;;5104163;28;20072;-79